sensor_id;sensor_type;location;lat;lon;timestamp;P1;durP1;ratioP1;P2;durP2;ratioP2
26042;SDS011;13818;52.156;5.382;2022-07-21T00:01:30;13.02;;;6.68;;
26042;SDS011;13818;52.156;5.382;2022-07-21T00:03:56;14.88;;;7.70;;
26042;SDS011;13818;52.156;5.382;2022-07-21T00:06:23;14.20;;;7.60;;
26042;SDS011;13818;52.156;5.382;2022-07-21T00:08:51;12.68;;;7.20;;
26042;SDS011;13818;52.156;5.382;2022-07-21T00:11:18;14.10;;;7.45;;
26042;SDS011;13818;52.156;5.382;2022-07-21T00:13:44;14.23;;;7.25;;
26042;SDS011;13818;52.156;5.382;2022-07-21T00:16:11;17.50;;;8.25;;
26042;SDS011;13818;52.156;5.382;2022-07-21T00:18:37;16.73;;;7.55;;
26042;SDS011;13818;52.156;5.382;2022-07-21T00:21:04;14.75;;;8.80;;
26042;SDS011;13818;52.156;5.382;2022-07-21T00:23:31;17.08;;;8.35;;
26042;SDS011;13818;52.156;5.382;2022-07-21T00:25:59;12.50;;;8.23;;
26042;SDS011;13818;52.156;5.382;2022-07-21T00:28:25;16.13;;;9.07;;
26042;SDS011;13818;52.156;5.382;2022-07-21T00:30:52;13.20;;;7.85;;
26042;SDS011;13818;52.156;5.382;2022-07-21T00:33:18;12.57;;;7.25;;
26042;SDS011;13818;52.156;5.382;2022-07-21T00:35:45;14.48;;;8.15;;
26042;SDS011;13818;52.156;5.382;2022-07-21T00:38:12;14.98;;;7.32;;
26042;SDS011;13818;52.156;5.382;2022-07-21T00:40:38;12.77;;;6.90;;
26042;SDS011;13818;52.156;5.382;2022-07-21T00:43:07;15.70;;;8.00;;
26042;SDS011;13818;52.156;5.382;2022-07-21T00:45:33;17.17;;;8.65;;
26042;SDS011;13818;52.156;5.382;2022-07-21T00:48:00;15.27;;;8.05;;
26042;SDS011;13818;52.156;5.382;2022-07-21T00:50:26;11.73;;;7.38;;
26042;SDS011;13818;52.156;5.382;2022-07-21T00:52:54;12.18;;;7.05;;
26042;SDS011;13818;52.156;5.382;2022-07-21T00:55:21;15.57;;;8.27;;
26042;SDS011;13818;52.156;5.382;2022-07-21T00:57:49;12.10;;;7.60;;
26042;SDS011;13818;52.156;5.382;2022-07-21T01:00:19;12.88;;;7.70;;
26042;SDS011;13818;52.156;5.382;2022-07-21T01:02:47;11.68;;;7.38;;
26042;SDS011;13818;52.156;5.382;2022-07-21T01:05:14;12.82;;;7.22;;
26042;SDS011;13818;52.156;5.382;2022-07-21T01:10:11;13.00;;;6.50;;
26042;SDS011;13818;52.156;5.382;2022-07-21T01:12:39;14.52;;;6.93;;
26042;SDS011;13818;52.156;5.382;2022-07-21T01:15:06;11.95;;;6.88;;
26042;SDS011;13818;52.156;5.382;2022-07-21T01:20:05;12.07;;;6.47;;
26042;SDS011;13818;52.156;5.382;2022-07-21T01:22:35;11.88;;;6.40;;
26042;SDS011;13818;52.156;5.382;2022-07-21T01:25:04;14.02;;;6.57;;
26042;SDS011;13818;52.156;5.382;2022-07-21T01:27:31;9.77;;;6.00;;
26042;SDS011;13818;52.156;5.382;2022-07-21T01:29:58;10.45;;;6.05;;
26042;SDS011;13818;52.156;5.382;2022-07-21T01:32:25;12.50;;;5.75;;
26042;SDS011;13818;52.156;5.382;2022-07-21T01:34:52;11.73;;;5.80;;
26042;SDS011;13818;52.156;5.382;2022-07-21T01:37:22;10.02;;;6.25;;
26042;SDS011;13818;52.156;5.382;2022-07-21T01:39:51;9.30;;;5.63;;
26042;SDS011;13818;52.156;5.382;2022-07-21T01:42:35;11.18;;;6.07;;
26042;SDS011;13818;52.156;5.382;2022-07-21T01:45:03;11.20;;;6.18;;
26042;SDS011;13818;52.156;5.382;2022-07-21T01:47:31;9.88;;;6.10;;
26042;SDS011;13818;52.156;5.382;2022-07-21T01:49:58;11.98;;;6.50;;
26042;SDS011;13818;52.156;5.382;2022-07-21T01:52:24;10.25;;;6.38;;
26042;SDS011;13818;52.156;5.382;2022-07-21T01:54:52;11.30;;;6.30;;
26042;SDS011;13818;52.156;5.382;2022-07-21T01:57:19;12.10;;;6.80;;
26042;SDS011;13818;52.156;5.382;2022-07-21T01:59:46;11.50;;;6.78;;
26042;SDS011;13818;52.156;5.382;2022-07-21T02:02:12;13.23;;;6.97;;
26042;SDS011;13818;52.156;5.382;2022-07-21T02:04:39;11.40;;;6.25;;
26042;SDS011;13818;52.156;5.382;2022-07-21T02:07:06;11.50;;;6.68;;
26042;SDS011;13818;52.156;5.382;2022-07-21T02:09:32;12.05;;;6.80;;
26042;SDS011;13818;52.156;5.382;2022-07-21T02:12:00;11.45;;;6.65;;
26042;SDS011;13818;52.156;5.382;2022-07-21T02:14:27;11.35;;;6.43;;
26042;SDS011;13818;52.156;5.382;2022-07-21T02:16:54;14.02;;;7.35;;
26042;SDS011;13818;52.156;5.382;2022-07-21T02:19:20;9.88;;;6.10;;
26042;SDS011;13818;52.156;5.382;2022-07-21T02:21:47;9.20;;;6.28;;
26042;SDS011;13818;52.156;5.382;2022-07-21T02:24:13;12.55;;;6.65;;
26042;SDS011;13818;52.156;5.382;2022-07-21T02:26:40;12.02;;;6.07;;
26042;SDS011;13818;52.156;5.382;2022-07-21T02:29:08;12.57;;;6.55;;
26042;SDS011;13818;52.156;5.382;2022-07-21T02:31:34;10.70;;;6.57;;
26042;SDS011;13818;52.156;5.382;2022-07-21T02:34:01;10.10;;;6.35;;
26042;SDS011;13818;52.156;5.382;2022-07-21T02:36:28;11.50;;;6.47;;
26042;SDS011;13818;52.156;5.382;2022-07-21T02:38:54;12.82;;;7.57;;
26042;SDS011;13818;52.156;5.382;2022-07-21T02:41:21;12.23;;;6.70;;
26042;SDS011;13818;52.156;5.382;2022-07-21T02:43:47;12.57;;;7.43;;
26042;SDS011;13818;52.156;5.382;2022-07-21T02:46:15;13.43;;;7.28;;
26042;SDS011;13818;52.156;5.382;2022-07-21T02:48:41;13.43;;;7.18;;
26042;SDS011;13818;52.156;5.382;2022-07-21T02:51:08;12.63;;;6.78;;
26042;SDS011;13818;52.156;5.382;2022-07-21T02:53:34;12.10;;;6.93;;
26042;SDS011;13818;52.156;5.382;2022-07-21T02:56:00;13.20;;;6.63;;
26042;SDS011;13818;52.156;5.382;2022-07-21T02:58:28;10.80;;;6.75;;
26042;SDS011;13818;52.156;5.382;2022-07-21T03:00:56;13.93;;;7.25;;
26042;SDS011;13818;52.156;5.382;2022-07-21T03:03:26;14.63;;;7.75;;
26042;SDS011;13818;52.156;5.382;2022-07-21T03:05:53;14.30;;;7.75;;
26042;SDS011;13818;52.156;5.382;2022-07-21T03:08:20;15.52;;;8.45;;
26042;SDS011;13818;52.156;5.382;2022-07-21T03:10:47;14.25;;;8.05;;
26042;SDS011;13818;52.156;5.382;2022-07-21T03:13:14;12.45;;;7.05;;
26042;SDS011;13818;52.156;5.382;2022-07-21T03:15:40;13.63;;;7.53;;
26042;SDS011;13818;52.156;5.382;2022-07-21T03:18:07;15.90;;;8.20;;
26042;SDS011;13818;52.156;5.382;2022-07-21T03:20:36;15.15;;;8.35;;
26042;SDS011;13818;52.156;5.382;2022-07-21T03:23:03;15.45;;;8.30;;
26042;SDS011;13818;52.156;5.382;2022-07-21T03:25:30;18.38;;;9.00;;
26042;SDS011;13818;52.156;5.382;2022-07-21T03:27:56;14.23;;;7.63;;
26042;SDS011;13818;52.156;5.382;2022-07-21T03:30:23;15.50;;;8.98;;
26042;SDS011;13818;52.156;5.382;2022-07-21T03:32:51;15.23;;;8.10;;
26042;SDS011;13818;52.156;5.382;2022-07-21T03:35:18;17.10;;;8.32;;
26042;SDS011;13818;52.156;5.382;2022-07-21T03:37:46;17.80;;;9.10;;
26042;SDS011;13818;52.156;5.382;2022-07-21T03:40:16;21.30;;;9.93;;
26042;SDS011;13818;52.156;5.382;2022-07-21T03:42:44;15.40;;;8.88;;
26042;SDS011;13818;52.156;5.382;2022-07-21T03:45:11;17.05;;;9.25;;
26042;SDS011;13818;52.156;5.382;2022-07-21T03:47:37;19.83;;;9.43;;
26042;SDS011;13818;52.156;5.382;2022-07-21T03:50:05;17.98;;;9.88;;
26042;SDS011;13818;52.156;5.382;2022-07-21T03:52:32;21.77;;;9.85;;
26042;SDS011;13818;52.156;5.382;2022-07-21T03:55:00;19.77;;;10.48;;
26042;SDS011;13818;52.156;5.382;2022-07-21T03:57:38;20.02;;;9.93;;
26042;SDS011;13818;52.156;5.382;2022-07-21T04:00:07;18.48;;;10.70;;
26042;SDS011;13818;52.156;5.382;2022-07-21T04:02:35;24.98;;;11.63;;
26042;SDS011;13818;52.156;5.382;2022-07-21T04:05:02;21.67;;;11.18;;
26042;SDS011;13818;52.156;5.382;2022-07-21T04:07:29;19.48;;;11.30;;
26042;SDS011;13818;52.156;5.382;2022-07-21T04:09:55;21.83;;;10.85;;
26042;SDS011;13818;52.156;5.382;2022-07-21T04:12:25;23.55;;;11.27;;
26042;SDS011;13818;52.156;5.382;2022-07-21T04:14:52;19.60;;;10.93;;
26042;SDS011;13818;52.156;5.382;2022-07-21T04:17:19;25.73;;;11.55;;
26042;SDS011;13818;52.156;5.382;2022-07-21T04:19:45;24.45;;;12.13;;
26042;SDS011;13818;52.156;5.382;2022-07-21T04:22:12;24.35;;;11.23;;
26042;SDS011;13818;52.156;5.382;2022-07-21T04:24:38;21.67;;;10.10;;
26042;SDS011;13818;52.156;5.382;2022-07-21T04:27:04;20.77;;;11.27;;
26042;SDS011;13818;52.156;5.382;2022-07-21T04:29:32;24.80;;;12.38;;
26042;SDS011;13818;52.156;5.382;2022-07-21T04:31:59;20.83;;;11.00;;
26042;SDS011;13818;52.156;5.382;2022-07-21T04:34:25;20.05;;;11.02;;
26042;SDS011;13818;52.156;5.382;2022-07-21T04:36:52;26.30;;;12.77;;
26042;SDS011;13818;52.156;5.382;2022-07-21T04:39:18;28.58;;;13.45;;
26042;SDS011;13818;52.156;5.382;2022-07-21T04:41:45;23.08;;;11.20;;
26042;SDS011;13818;52.156;5.382;2022-07-21T04:44:11;26.17;;;12.68;;
26042;SDS011;13818;52.156;5.382;2022-07-21T04:46:39;27.35;;;12.98;;
26042;SDS011;13818;52.156;5.382;2022-07-21T04:49:06;26.20;;;13.75;;
26042;SDS011;13818;52.156;5.382;2022-07-21T04:51:33;23.83;;;13.13;;
26042;SDS011;13818;52.156;5.382;2022-07-21T04:53:59;26.38;;;12.65;;
26042;SDS011;13818;52.156;5.382;2022-07-21T04:56:26;25.55;;;13.38;;
26042;SDS011;13818;52.156;5.382;2022-07-21T04:58:52;27.50;;;13.70;;
26042;SDS011;13818;52.156;5.382;2022-07-21T05:01:19;26.60;;;13.30;;
26042;SDS011;13818;52.156;5.382;2022-07-21T05:03:46;30.20;;;14.65;;
26042;SDS011;13818;52.156;5.382;2022-07-21T05:06:13;25.98;;;14.00;;
26042;SDS011;13818;52.156;5.382;2022-07-21T05:08:39;26.00;;;13.27;;
26042;SDS011;13818;52.156;5.382;2022-07-21T05:11:06;25.02;;;13.25;;
26042;SDS011;13818;52.156;5.382;2022-07-21T05:13:32;29.13;;;14.10;;
26042;SDS011;13818;52.156;5.382;2022-07-21T05:15:58;24.90;;;11.80;;
26042;SDS011;13818;52.156;5.382;2022-07-21T05:18:25;23.55;;;11.85;;
26042;SDS011;13818;52.156;5.382;2022-07-21T05:20:53;25.13;;;13.52;;
26042;SDS011;13818;52.156;5.382;2022-07-21T05:23:19;26.88;;;13.68;;
26042;SDS011;13818;52.156;5.382;2022-07-21T05:25:46;26.85;;;13.82;;
26042;SDS011;13818;52.156;5.382;2022-07-21T05:28:12;28.55;;;14.85;;
26042;SDS011;13818;52.156;5.382;2022-07-21T05:30:39;26.25;;;14.35;;
26042;SDS011;13818;52.156;5.382;2022-07-21T05:33:05;31.33;;;15.43;;
26042;SDS011;13818;52.156;5.382;2022-07-21T05:35:32;27.95;;;14.57;;
26042;SDS011;13818;52.156;5.382;2022-07-21T05:38:00;33.80;;;15.75;;
26042;SDS011;13818;52.156;5.382;2022-07-21T05:40:26;32.97;;;15.82;;
26042;SDS011;13818;52.156;5.382;2022-07-21T05:42:52;36.25;;;16.90;;
26042;SDS011;13818;52.156;5.382;2022-07-21T05:45:19;34.20;;;17.08;;
26042;SDS011;13818;52.156;5.382;2022-07-21T05:47:46;39.35;;;17.20;;
26042;SDS011;13818;52.156;5.382;2022-07-21T05:50:12;37.50;;;17.67;;
26042;SDS011;13818;52.156;5.382;2022-07-21T05:52:39;34.50;;;17.55;;
26042;SDS011;13818;52.156;5.382;2022-07-21T05:55:08;34.65;;;17.63;;
26042;SDS011;13818;52.156;5.382;2022-07-21T06:00:02;38.72;;;16.70;;
26042;SDS011;13818;52.156;5.382;2022-07-21T06:02:30;37.78;;;16.92;;
26042;SDS011;13818;52.156;5.382;2022-07-21T06:04:58;30.98;;;16.52;;
26042;SDS011;13818;52.156;5.382;2022-07-21T06:07:25;35.25;;;16.67;;
26042;SDS011;13818;52.156;5.382;2022-07-21T06:09:51;37.92;;;16.58;;
26042;SDS011;13818;52.156;5.382;2022-07-21T06:12:19;36.03;;;17.27;;
26042;SDS011;13818;52.156;5.382;2022-07-21T06:14:46;33.42;;;15.20;;
26042;SDS011;13818;52.156;5.382;2022-07-21T06:17:14;35.10;;;15.33;;
26042;SDS011;13818;52.156;5.382;2022-07-21T06:19:41;32.38;;;15.75;;
26042;SDS011;13818;52.156;5.382;2022-07-21T06:22:07;29.30;;;14.32;;
26042;SDS011;13818;52.156;5.382;2022-07-21T06:24:33;27.40;;;14.90;;
26042;SDS011;13818;52.156;5.382;2022-07-21T06:27:00;24.95;;;13.45;;
26042;SDS011;13818;52.156;5.382;2022-07-21T06:29:28;31.38;;;14.05;;
26042;SDS011;13818;52.156;5.382;2022-07-21T06:31:55;31.80;;;15.07;;
26042;SDS011;13818;52.156;5.382;2022-07-21T06:34:21;25.88;;;12.65;;
26042;SDS011;13818;52.156;5.382;2022-07-21T06:36:48;27.50;;;13.20;;
26042;SDS011;13818;52.156;5.382;2022-07-21T06:39:14;24.52;;;12.60;;
26042;SDS011;13818;52.156;5.382;2022-07-21T06:41:40;27.65;;;12.65;;
26042;SDS011;13818;52.156;5.382;2022-07-21T06:44:07;26.48;;;12.05;;
26042;SDS011;13818;52.156;5.382;2022-07-21T06:46:35;30.42;;;12.27;;
26042;SDS011;13818;52.156;5.382;2022-07-21T06:49:02;21.27;;;10.93;;
26042;SDS011;13818;52.156;5.382;2022-07-21T06:51:29;23.95;;;11.38;;
26042;SDS011;13818;52.156;5.382;2022-07-21T06:53:55;29.90;;;11.65;;
26042;SDS011;13818;52.156;5.382;2022-07-21T06:56:22;23.05;;;11.55;;
26042;SDS011;13818;52.156;5.382;2022-07-21T06:58:48;22.13;;;11.90;;
26042;SDS011;13818;52.156;5.382;2022-07-21T07:01:14;27.33;;;12.98;;
26042;SDS011;13818;52.156;5.382;2022-07-21T07:03:44;27.10;;;12.93;;
26042;SDS011;13818;52.156;5.382;2022-07-21T07:06:11;29.17;;;13.93;;
26042;SDS011;13818;52.156;5.382;2022-07-21T07:08:38;33.58;;;14.27;;
26042;SDS011;13818;52.156;5.382;2022-07-21T07:11:05;32.17;;;14.23;;
26042;SDS011;13818;52.156;5.382;2022-07-21T07:13:32;32.42;;;13.95;;
26042;SDS011;13818;52.156;5.382;2022-07-21T07:15:58;38.50;;;14.95;;
26042;SDS011;13818;52.156;5.382;2022-07-21T07:18:25;29.38;;;14.63;;
26042;SDS011;13818;52.156;5.382;2022-07-21T07:20:52;34.42;;;14.70;;
26042;SDS011;13818;52.156;5.382;2022-07-21T07:23:19;30.35;;;14.73;;
26042;SDS011;13818;52.156;5.382;2022-07-21T07:25:45;35.25;;;15.70;;
26042;SDS011;13818;52.156;5.382;2022-07-21T07:28:12;35.38;;;16.63;;
26042;SDS011;13818;52.156;5.382;2022-07-21T07:30:38;37.25;;;15.50;;
26042;SDS011;13818;52.156;5.382;2022-07-21T07:33:05;41.15;;;16.48;;
26042;SDS011;13818;52.156;5.382;2022-07-21T07:35:31;37.33;;;15.85;;
26042;SDS011;13818;52.156;5.382;2022-07-21T07:37:59;39.70;;;16.88;;
26042;SDS011;13818;52.156;5.382;2022-07-21T07:40:26;42.53;;;16.42;;
26042;SDS011;13818;52.156;5.382;2022-07-21T07:42:52;39.65;;;16.25;;
26042;SDS011;13818;52.156;5.382;2022-07-21T07:45:19;41.28;;;16.65;;
26042;SDS011;13818;52.156;5.382;2022-07-21T07:47:46;35.95;;;15.75;;
26042;SDS011;13818;52.156;5.382;2022-07-21T07:50:13;39.63;;;16.85;;
26042;SDS011;13818;52.156;5.382;2022-07-21T07:52:41;50.22;;;19.30;;
26042;SDS011;13818;52.156;5.382;2022-07-21T07:55:10;51.50;;;18.42;;
26042;SDS011;13818;52.156;5.382;2022-07-21T07:57:37;43.80;;;18.47;;
26042;SDS011;13818;52.156;5.382;2022-07-21T08:00:05;33.55;;;14.68;;
26042;SDS011;13818;52.156;5.382;2022-07-21T08:02:33;40.42;;;18.05;;
26042;SDS011;13818;52.156;5.382;2022-07-21T08:05:00;47.03;;;18.65;;
26042;SDS011;13818;52.156;5.382;2022-07-21T08:07:26;39.08;;;16.67;;
26042;SDS011;13818;52.156;5.382;2022-07-21T08:09:53;39.20;;;16.70;;
26042;SDS011;13818;52.156;5.382;2022-07-21T08:12:20;41.00;;;19.73;;
26042;SDS011;13818;52.156;5.382;2022-07-21T08:14:47;42.90;;;17.65;;
26042;SDS011;13818;52.156;5.382;2022-07-21T08:17:13;45.28;;;18.63;;
26042;SDS011;13818;52.156;5.382;2022-07-21T08:19:41;40.75;;;17.58;;
26042;SDS011;13818;52.156;5.382;2022-07-21T08:22:08;38.80;;;17.38;;
26042;SDS011;13818;52.156;5.382;2022-07-21T08:24:34;36.92;;;16.70;;
26042;SDS011;13818;52.156;5.382;2022-07-21T08:27:00;38.60;;;17.15;;
26042;SDS011;13818;52.156;5.382;2022-07-21T08:29:29;43.45;;;16.88;;
26042;SDS011;13818;52.156;5.382;2022-07-21T08:31:55;42.03;;;17.08;;
26042;SDS011;13818;52.156;5.382;2022-07-21T08:34:21;39.90;;;17.42;;
26042;SDS011;13818;52.156;5.382;2022-07-21T08:36:48;43.08;;;18.48;;
26042;SDS011;13818;52.156;5.382;2022-07-21T08:39:14;44.75;;;17.35;;
26042;SDS011;13818;52.156;5.382;2022-07-21T08:41:41;44.40;;;18.23;;
26042;SDS011;13818;52.156;5.382;2022-07-21T08:44:07;50.63;;;18.35;;
26042;SDS011;13818;52.156;5.382;2022-07-21T08:46:37;43.17;;;18.05;;
26042;SDS011;13818;52.156;5.382;2022-07-21T08:49:06;43.33;;;17.17;;
26042;SDS011;13818;52.156;5.382;2022-07-21T08:51:35;40.92;;;16.85;;
26042;SDS011;13818;52.156;5.382;2022-07-21T08:54:03;41.50;;;18.52;;
26042;SDS011;13818;52.156;5.382;2022-07-21T08:56:30;41.17;;;17.20;;
26042;SDS011;13818;52.156;5.382;2022-07-21T08:58:56;39.83;;;16.70;;
26042;SDS011;13818;52.156;5.382;2022-07-21T09:01:23;45.75;;;17.63;;
26042;SDS011;13818;52.156;5.382;2022-07-21T09:03:52;74.40;;;34.63;;
26042;SDS011;13818;52.156;5.382;2022-07-21T09:06:19;53.35;;;21.00;;
26042;SDS011;13818;52.156;5.382;2022-07-21T09:08:47;35.10;;;14.43;;
26042;SDS011;13818;52.156;5.382;2022-07-21T09:11:16;36.75;;;15.27;;
26042;SDS011;13818;52.156;5.382;2022-07-21T09:13:45;32.28;;;13.70;;
26042;SDS011;13818;52.156;5.382;2022-07-21T09:16:28;30.40;;;13.45;;
26042;SDS011;13818;52.156;5.382;2022-07-21T09:19:01;27.25;;;11.10;;
26042;SDS011;13818;52.156;5.382;2022-07-21T09:21:29;18.55;;;10.13;;
26042;SDS011;13818;52.156;5.382;2022-07-21T09:24:10;22.02;;;9.90;;
26042;SDS011;13818;52.156;5.382;2022-07-21T09:29:23;12.52;;;6.10;;
26042;SDS011;13818;52.156;5.382;2022-07-21T09:31:49;13.98;;;5.97;;
26042;SDS011;13818;52.156;5.382;2022-07-21T09:34:17;9.82;;;4.03;;
26042;SDS011;13818;52.156;5.382;2022-07-21T09:36:53;11.93;;;4.50;;
26042;SDS011;13818;52.156;5.382;2022-07-21T09:42:13;6.90;;;4.40;;
26042;SDS011;13818;52.156;5.382;2022-07-21T09:44:42;8.65;;;4.00;;
26042;SDS011;13818;52.156;5.382;2022-07-21T09:47:11;8.18;;;3.75;;
26042;SDS011;13818;52.156;5.382;2022-07-21T09:49:40;8.50;;;4.80;;
26042;SDS011;13818;52.156;5.382;2022-07-21T09:52:20;5.60;;;3.88;;
26042;SDS011;13818;52.156;5.382;2022-07-21T09:54:48;9.95;;;4.68;;
26042;SDS011;13818;52.156;5.382;2022-07-21T09:57:15;9.00;;;3.92;;
26042;SDS011;13818;52.156;5.382;2022-07-21T09:59:43;6.60;;;3.75;;
26042;SDS011;13818;52.156;5.382;2022-07-21T10:02:10;7.70;;;3.92;;
26042;SDS011;13818;52.156;5.382;2022-07-21T10:04:42;13.10;;;4.85;;
26042;SDS011;13818;52.156;5.382;2022-07-21T10:07:11;10.95;;;3.67;;
26042;SDS011;13818;52.156;5.382;2022-07-21T10:09:38;7.90;;;3.33;;
26042;SDS011;13818;52.156;5.382;2022-07-21T10:12:06;7.40;;;3.50;;
26042;SDS011;13818;52.156;5.382;2022-07-21T10:14:34;6.50;;;3.70;;
26042;SDS011;13818;52.156;5.382;2022-07-21T10:17:01;6.85;;;3.38;;
26042;SDS011;13818;52.156;5.382;2022-07-21T10:19:30;5.70;;;3.50;;
26042;SDS011;13818;52.156;5.382;2022-07-21T10:22:06;6.05;;;3.47;;
26042;SDS011;13818;52.156;5.382;2022-07-21T10:24:35;5.57;;;3.35;;
26042;SDS011;13818;52.156;5.382;2022-07-21T10:27:05;6.65;;;3.97;;
26042;SDS011;13818;52.156;5.382;2022-07-21T10:29:55;4.28;;;3.00;;
26042;SDS011;13818;52.156;5.382;2022-07-21T10:32:24;5.53;;;2.97;;
26042;SDS011;13818;52.156;5.382;2022-07-21T10:34:52;7.22;;;2.92;;
26042;SDS011;13818;52.156;5.382;2022-07-21T10:46:04;7.13;;;4.22;;
26042;SDS011;13818;52.156;5.382;2022-07-21T10:49:05;7.38;;;4.10;;
26042;SDS011;13818;52.156;5.382;2022-07-21T10:51:33;7.32;;;4.53;;
26042;SDS011;13818;52.156;5.382;2022-07-21T10:54:22;16.63;;;9.27;;
26042;SDS011;13818;52.156;5.382;2022-07-21T11:02:57;8.35;;;4.45;;
26042;SDS011;13818;52.156;5.382;2022-07-21T11:05:25;8.57;;;4.47;;
26042;SDS011;13818;52.156;5.382;2022-07-21T11:08:08;7.53;;;4.00;;
26042;SDS011;13818;52.156;5.382;2022-07-21T11:10:42;10.68;;;5.47;;
26042;SDS011;13818;52.156;5.382;2022-07-21T11:13:10;7.18;;;4.40;;
26042;SDS011;13818;52.156;5.382;2022-07-21T11:15:47;12.85;;;5.32;;
26042;SDS011;13818;52.156;5.382;2022-07-21T11:18:25;8.35;;;4.90;;
26042;SDS011;13818;52.156;5.382;2022-07-21T11:21:09;10.25;;;4.75;;
26042;SDS011;13818;52.156;5.382;2022-07-21T11:23:38;8.90;;;4.80;;
26042;SDS011;13818;52.156;5.382;2022-07-21T11:26:08;7.30;;;3.92;;
26042;SDS011;13818;52.156;5.382;2022-07-21T11:28:35;8.10;;;4.07;;
26042;SDS011;13818;52.156;5.382;2022-07-21T11:31:06;9.98;;;4.68;;
26042;SDS011;13818;52.156;5.382;2022-07-21T11:33:43;10.73;;;4.72;;
26042;SDS011;13818;52.156;5.382;2022-07-21T11:36:10;12.45;;;5.70;;
26042;SDS011;13818;52.156;5.382;2022-07-21T11:38:59;9.80;;;5.00;;
26042;SDS011;13818;52.156;5.382;2022-07-21T11:41:28;7.68;;;4.20;;
26042;SDS011;13818;52.156;5.382;2022-07-21T11:43:55;8.15;;;3.78;;
26042;SDS011;13818;52.156;5.382;2022-07-21T11:46:21;8.32;;;4.65;;
26042;SDS011;13818;52.156;5.382;2022-07-21T11:48:48;8.32;;;4.13;;
26042;SDS011;13818;52.156;5.382;2022-07-21T11:51:25;7.57;;;4.47;;
26042;SDS011;13818;52.156;5.382;2022-07-21T11:53:52;7.20;;;3.72;;
26042;SDS011;13818;52.156;5.382;2022-07-21T11:56:18;7.68;;;3.85;;
26042;SDS011;13818;52.156;5.382;2022-07-21T11:58:47;9.82;;;3.90;;
26042;SDS011;13818;52.156;5.382;2022-07-21T12:01:14;7.68;;;3.85;;
26042;SDS011;13818;52.156;5.382;2022-07-21T12:03:47;4.43;;;2.83;;
26042;SDS011;13818;52.156;5.382;2022-07-21T12:06:15;4.97;;;2.72;;
26042;SDS011;13818;52.156;5.382;2022-07-21T12:08:42;6.50;;;3.67;;
26042;SDS011;13818;52.156;5.382;2022-07-21T12:11:09;6.30;;;2.88;;
26042;SDS011;13818;52.156;5.382;2022-07-21T12:13:54;4.90;;;2.65;;
26042;SDS011;13818;52.156;5.382;2022-07-21T12:16:22;5.97;;;3.03;;
26042;SDS011;13818;52.156;5.382;2022-07-21T12:21:42;6.63;;;2.40;;
26042;SDS011;13818;52.156;5.382;2022-07-21T12:24:10;6.18;;;3.08;;
26042;SDS011;13818;52.156;5.382;2022-07-21T12:26:36;5.93;;;3.05;;
26042;SDS011;13818;52.156;5.382;2022-07-21T12:29:05;4.22;;;2.72;;
26042;SDS011;13818;52.156;5.382;2022-07-21T12:31:33;5.28;;;2.88;;
26042;SDS011;13818;52.156;5.382;2022-07-21T12:34:09;7.20;;;3.20;;
26042;SDS011;13818;52.156;5.382;2022-07-21T12:36:37;4.10;;;2.67;;
26042;SDS011;13818;52.156;5.382;2022-07-21T12:39:16;5.10;;;3.05;;
26042;SDS011;13818;52.156;5.382;2022-07-21T12:41:58;7.75;;;3.03;;
26042;SDS011;13818;52.156;5.382;2022-07-21T12:44:26;4.78;;;2.38;;
26042;SDS011;13818;52.156;5.382;2022-07-21T12:46:54;4.03;;;2.20;;
26042;SDS011;13818;52.156;5.382;2022-07-21T12:49:21;11.88;;;5.55;;
26042;SDS011;13818;52.156;5.382;2022-07-21T12:51:54;7.65;;;4.75;;
26042;SDS011;13818;52.156;5.382;2022-07-21T12:54:21;4.57;;;2.70;;
26042;SDS011;13818;52.156;5.382;2022-07-21T12:56:48;4.28;;;2.50;;
26042;SDS011;13818;52.156;5.382;2022-07-21T12:59:14;5.72;;;2.58;;
26042;SDS011;13818;52.156;5.382;2022-07-21T13:01:42;4.18;;;2.85;;
26042;SDS011;13818;52.156;5.382;2022-07-21T13:04:09;6.00;;;3.13;;
26042;SDS011;13818;52.156;5.382;2022-07-21T13:06:35;7.00;;;3.17;;
26042;SDS011;13818;52.156;5.382;2022-07-21T13:09:02;9.10;;;3.08;;
26042;SDS011;13818;52.156;5.382;2022-07-21T13:11:29;5.55;;;2.95;;
26042;SDS011;13818;52.156;5.382;2022-07-21T13:13:55;5.18;;;2.72;;
26042;SDS011;13818;52.156;5.382;2022-07-21T13:16:25;6.20;;;3.13;;
26042;SDS011;13818;52.156;5.382;2022-07-21T13:18:52;3.60;;;1.92;;
26042;SDS011;13818;52.156;5.382;2022-07-21T13:21:19;4.28;;;2.22;;
26042;SDS011;13818;52.156;5.382;2022-07-21T13:23:45;3.25;;;2.22;;
26042;SDS011;13818;52.156;5.382;2022-07-21T13:26:12;5.35;;;2.40;;
26042;SDS011;13818;52.156;5.382;2022-07-21T13:28:38;2.75;;;1.98;;
26042;SDS011;13818;52.156;5.382;2022-07-21T13:31:05;4.15;;;2.35;;
26042;SDS011;13818;52.156;5.382;2022-07-21T13:33:33;3.25;;;1.73;;
26042;SDS011;13818;52.156;5.382;2022-07-21T13:36:02;3.92;;;1.85;;
26042;SDS011;13818;52.156;5.382;2022-07-21T13:38:29;2.80;;;1.42;;
26042;SDS011;13818;52.156;5.382;2022-07-21T13:40:56;5.35;;;1.88;;
26042;SDS011;13818;52.156;5.382;2022-07-21T13:43:23;4.03;;;2.17;;
26042;SDS011;13818;52.156;5.382;2022-07-21T13:45:49;4.22;;;1.80;;
26042;SDS011;13818;52.156;5.382;2022-07-21T13:48:16;3.55;;;2.00;;
26042;SDS011;13818;52.156;5.382;2022-07-21T13:50:42;5.78;;;1.70;;
26042;SDS011;13818;52.156;5.382;2022-07-21T13:53:10;3.30;;;1.70;;
26042;SDS011;13818;52.156;5.382;2022-07-21T13:55:36;2.60;;;1.35;;
26042;SDS011;13818;52.156;5.382;2022-07-21T13:58:03;4.60;;;2.15;;
26042;SDS011;13818;52.156;5.382;2022-07-21T14:00:31;3.85;;;1.50;;
26042;SDS011;13818;52.156;5.382;2022-07-21T14:02:58;8.88;;;2.97;;
26042;SDS011;13818;52.156;5.382;2022-07-21T14:05:24;3.50;;;1.50;;
26042;SDS011;13818;52.156;5.382;2022-07-21T14:07:51;4.25;;;1.98;;
26042;SDS011;13818;52.156;5.382;2022-07-21T14:10:19;4.72;;;1.60;;
26042;SDS011;13818;52.156;5.382;2022-07-21T14:12:46;5.82;;;1.85;;
26042;SDS011;13818;52.156;5.382;2022-07-21T14:15:12;4.82;;;1.80;;
26042;SDS011;13818;52.156;5.382;2022-07-21T14:17:38;4.22;;;1.70;;
26042;SDS011;13818;52.156;5.382;2022-07-21T14:20:05;4.43;;;1.63;;
26042;SDS011;13818;52.156;5.382;2022-07-21T14:22:32;3.80;;;2.10;;
26042;SDS011;13818;52.156;5.382;2022-07-21T14:24:59;4.70;;;2.33;;
26042;SDS011;13818;52.156;5.382;2022-07-21T14:27:53;4.88;;;1.98;;
26042;SDS011;13818;52.156;5.382;2022-07-21T14:30:20;5.65;;;2.10;;
26042;SDS011;13818;52.156;5.382;2022-07-21T14:32:48;3.80;;;2.17;;
26042;SDS011;13818;52.156;5.382;2022-07-21T14:35:15;4.00;;;2.10;;
26042;SDS011;13818;52.156;5.382;2022-07-21T14:37:44;3.63;;;2.03;;
26042;SDS011;13818;52.156;5.382;2022-07-21T14:40:11;5.80;;;2.03;;
26042;SDS011;13818;52.156;5.382;2022-07-21T14:42:38;6.00;;;2.38;;
26042;SDS011;13818;52.156;5.382;2022-07-21T14:45:06;4.38;;;2.33;;
26042;SDS011;13818;52.156;5.382;2022-07-21T14:47:33;6.10;;;2.65;;
26042;SDS011;13818;52.156;5.382;2022-07-21T14:50:00;3.80;;;2.20;;
26042;SDS011;13818;52.156;5.382;2022-07-21T14:52:27;3.47;;;2.17;;
26042;SDS011;13818;52.156;5.382;2022-07-21T14:54:53;5.75;;;2.63;;
26042;SDS011;13818;52.156;5.382;2022-07-21T14:57:19;4.75;;;2.35;;
26042;SDS011;13818;52.156;5.382;2022-07-21T14:59:46;6.97;;;2.83;;
26042;SDS011;13818;52.156;5.382;2022-07-21T15:02:14;5.13;;;3.08;;
26042;SDS011;13818;52.156;5.382;2022-07-21T15:04:40;5.82;;;3.10;;
26042;SDS011;13818;52.156;5.382;2022-07-21T15:07:07;4.25;;;3.17;;
26042;SDS011;13818;52.156;5.382;2022-07-21T15:09:33;6.70;;;3.45;;